Time;durP1;ratioP1;P1;durP2;ratioP2;P2;SDS_P1;SDS_P2;PMS_P1;PMS_P2;Temp;Humidity;BMP_temperature;BMP_pressure;BME280_temperature;BME280_humidity;BME280_pressure;Samples;Min_cycle;Max_cycle;Signal;HPM_P1;HPM_P2
2023/07/24 00:01:31;;;;;;;1.42;1.20;;;19.10;99.90;;;;;;4977333;28;20038;-67
2023/07/24 00:03:56;;;;;;;2.05;1.58;;;19.00;99.90;;;;;;4978030;28;20062;-67
2023/07/24 00:06:22;;;;;;;2.53;1.25;;;19.00;99.90;;;;;;4977953;28;20015;-67
2023/07/24 00:08:47;;;;;;;1.63;1.30;;;19.00;99.90;;;;;;4978138;28;20023;-67
2023/07/24 00:11:13;;;;;;;2.45;1.35;;;18.90;99.90;;;;;;4977220;28;20019;-67
2023/07/24 00:13:38;;;;;;;1.63;1.33;;;18.90;99.90;;;;;;4977397;28;20037;-67
2023/07/24 00:16:08;;;;;;;3.55;1.45;;;18.90;99.90;;;;;;4977285;28;20039;-67
2023/07/24 00:18:34;;;;;;;1.88;1.45;;;18.90;99.90;;;;;;4977237;28;20022;-67
2023/07/24 00:20:59;;;;;;;3.05;1.50;;;18.90;99.90;;;;;;4978345;28;20031;-67
2023/07/24 00:23:25;;;;;;;2.28;1.20;;;18.80;99.90;;;;;;4977525;28;20054;-67
2023/07/24 00:25:50;;;;;;;4.60;1.75;;;18.80;99.90;;;;;;4977739;28;20081;-67
2023/07/24 00:28:16;;;;;;;1.80;1.23;;;18.90;99.90;;;;;;4977070;28;20035;-67
2023/07/24 00:30:42;;;;;;;1.92;1.60;;;18.80;99.90;;;;;;4977111;28;20029;-67
2023/07/24 00:33:08;;;;;;;2.13;1.80;;;18.70;99.90;;;;;;4977430;28;20126;-67
2023/07/24 00:35:33;;;;;;;2.22;1.70;;;18.70;99.90;;;;;;4977460;28;20113;-67
2023/07/24 00:37:59;;;;;;;1.88;1.30;;;18.70;99.90;;;;;;4977797;28;20054;-67
2023/07/24 00:40:24;;;;;;;2.17;1.20;;;18.70;99.90;;;;;;4977548;28;20249;-67
2023/07/24 00:42:50;;;;;;;3.13;1.38;;;18.70;99.90;;;;;;4976760;28;20023;-67
2023/07/24 00:45:16;;;;;;;2.35;1.60;;;18.70;99.90;;;;;;4975951;28;20046;-68
2023/07/24 00:47:42;;;;;;;2.83;1.48;;;18.70;99.90;;;;;;4976669;28;20089;-68
2023/07/24 00:50:11;;;;;;;3.53;1.60;;;18.80;99.90;;;;;;4977207;28;20090;-67
2023/07/24 00:52:37;;;;;;;2.15;1.50;;;18.80;99.90;;;;;;4976792;28;20031;-67
2023/07/24 00:55:03;;;;;;;2.30;1.42;;;18.80;99.90;;;;;;4976681;28;20122;-67
2023/07/24 00:57:29;;;;;;;3.70;1.67;;;18.80;99.90;;;;;;4976897;28;20027;-67
2023/07/24 00:59:55;;;;;;;6.65;1.40;;;18.90;99.90;;;;;;4977180;28;20023;-67
2023/07/24 01:02:20;;;;;;;1.98;1.15;;;18.80;99.90;;;;;;4976464;28;20027;-67
2023/07/24 01:04:47;;;;;;;4.05;1.33;;;18.70;99.90;;;;;;4977610;28;20022;-67
2023/07/24 01:07:12;;;;;;;2.83;1.38;;;18.60;99.90;;;;;;4976650;28;20058;-67
2023/07/24 01:09:38;;;;;;;2.70;1.33;;;18.50;99.90;;;;;;4978037;28;20050;-67
2023/07/24 01:12:16;;;;;;;3.53;1.60;;;18.40;99.90;;;;;;4980124;28;20026;-67
2023/07/24 01:14:44;;;;;;;3.42;1.60;;;18.40;99.90;;;;;;4981185;28;20027;-67
2023/07/24 01:17:16;;;;;;;4.60;1.58;;;18.40;99.90;;;;;;4981175;28;20023;-67
2023/07/24 01:19:48;;;;;;;;;;;18.40;99.90;;;;;;4981464;28;20023;-67
2023/07/24 01:22:20;;;;;;;3.75;1.48;;;18.50;99.90;;;;;;4980457;28;19953;-67
2023/07/24 01:25:22;;;;;;;4.32;1.48;;;18.50;99.90;;;;;;4980764;28;20080;-68
2023/07/24 01:27:48;;;;;;;5.07;1.63;;;18.60;99.90;;;;;;4980406;28;20039;-67
2023/07/24 01:30:18;;;;;;;3.72;1.67;;;18.40;99.90;;;;;;4980875;28;20034;-67
2023/07/24 01:32:44;;;;;;;2.67;1.30;;;18.40;99.90;;;;;;4979850;28;20027;-67
2023/07/24 01:35:09;;;;;;;2.15;1.40;;;18.40;99.90;;;;;;4981109;28;20049;-67
2023/07/24 01:37:35;;;;;;;2.83;1.30;;;18.40;99.90;;;;;;4979812;28;20027;-67
2023/07/24 01:40:02;;;;;;;1.73;1.30;;;18.40;99.90;;;;;;4979724;28;20165;-67
2023/07/24 01:42:28;;;;;;;5.90;1.30;;;18.50;99.90;;;;;;4979715;28;20027;-67
2023/07/24 01:44:55;;;;;;;5.25;1.40;;;18.50;99.90;;;;;;4979953;28;20114;-67
2023/07/24 01:47:21;;;;;;;2.72;1.80;;;18.50;99.90;;;;;;4980049;28;20038;-67
2023/07/24 01:49:47;;;;;;;1.92;1.20;;;18.50;99.90;;;;;;4980451;28;20030;-67
2023/07/24 01:52:13;;;;;;;4.97;1.65;;;18.50;99.90;;;;;;4980467;28;20027;-67
2023/07/24 01:54:38;;;;;;;5.22;1.60;;;18.60;99.90;;;;;;4979596;28;20122;-67
2023/07/24 01:57:04;;;;;;;4.05;1.90;;;18.60;99.90;;;;;;4980122;28;20050;-67
2023/07/24 01:59:30;;;;;;;2.33;1.30;;;18.60;99.90;;;;;;4979685;28;20033;-68
2023/07/24 02:01:55;;;;;;;5.90;1.20;;;18.50;99.90;;;;;;4979027;28;20027;-67
2023/07/24 02:04:22;;;;;;;2.55;1.60;;;18.50;99.90;;;;;;4979332;28;20038;-67
2023/07/24 02:06:48;;;;;;;4.28;1.70;;;18.50;99.90;;;;;;4980306;28;20026;-67
2023/07/24 02:09:14;;;;;;;2.80;1.40;;;18.50;99.90;;;;;;4979211;28;20023;-67
2023/07/24 02:11:40;;;;;;;5.68;1.75;;;18.50;99.90;;;;;;4979173;28;20023;-67
2023/07/24 02:14:05;;;;;;;5.55;1.40;;;18.50;99.90;;;;;;4979422;28;20062;-67
2023/07/24 02:16:31;;;;;;;3.03;1.23;;;18.60;99.90;;;;;;4980269;28;20061;-67
2023/07/24 02:18:57;;;;;;;1.67;1.27;;;18.60;99.90;;;;;;4980052;28;20034;-67
2023/07/24 02:21:22;;;;;;;1.77;1.15;;;18.50;99.90;;;;;;4978760;28;20027;-67
2023/07/24 02:23:48;;;;;;;5.03;1.73;;;18.60;99.90;;;;;;4978865;28;20031;-67
2023/07/24 02:26:13;;;;;;;2.05;1.23;;;18.60;99.90;;;;;;4979868;28;20039;-67
2023/07/24 02:28:39;;;;;;;3.13;1.38;;;18.50;99.90;;;;;;4978951;28;20030;-67
2023/07/24 02:31:04;;;;;;;4.57;1.50;;;18.50;99.90;;;;;;4978861;28;20110;-67
2023/07/24 02:33:30;;;;;;;3.97;1.50;;;18.50;99.90;;;;;;4979350;28;20031;-67
2023/07/24 02:35:55;;;;;;;3.92;1.52;;;18.50;99.90;;;;;;4978689;28;20026;-67
2023/07/24 02:38:21;;;;;;;1.65;1.17;;;18.40;99.90;;;;;;4978804;28;20030;-67
2023/07/24 02:40:46;;;;;;;2.38;1.35;;;18.50;99.90;;;;;;4979542;28;20085;-67
2023/07/24 02:43:12;;;;;;;1.70;1.40;;;18.40;99.90;;;;;;4978402;28;20058;-67
2023/07/24 02:45:37;;;;;;;3.45;1.50;;;18.40;99.90;;;;;;4979390;28;20031;-67
2023/07/24 02:48:04;;;;;;;2.15;1.40;;;18.40;99.90;;;;;;4979339;28;20050;-67
2023/07/24 02:50:29;;;;;;;4.53;1.40;;;18.40;99.90;;;;;;4979375;28;20113;-67
2023/07/24 02:52:55;;;;;;;1.92;1.50;;;18.40;99.90;;;;;;4979319;28;20111;-67
2023/07/24 02:55:20;;;;;;;2.22;1.42;;;18.40;99.90;;;;;;4978219;28;20026;-67
2023/07/24 02:57:46;;;;;;;2.30;1.63;;;18.40;99.90;;;;;;4978471;28;20046;-68
2023/07/24 03:00:12;;;;;;;2.80;1.60;;;18.40;99.90;;;;;;4978690;28;20023;-67
2023/07/24 03:02:38;;;;;;;2.20;1.55;;;18.30;99.90;;;;;;4978414;28;20034;-67
2023/07/24 03:05:04;;;;;;;3.50;1.33;;;18.30;99.90;;;;;;4978903;28;20034;-67
2023/07/24 03:07:29;;;;;;;2.50;1.30;;;18.30;99.90;;;;;;4977852;28;20030;-67
2023/07/24 03:09:55;;;;;;;1.60;1.48;;;18.30;99.90;;;;;;4978406;28;20078;-67
2023/07/24 03:12:20;;;;;;;3.00;1.50;;;18.30;99.90;;;;;;4977943;28;20022;-67
2023/07/24 03:14:47;;;;;;;3.30;1.60;;;18.30;99.90;;;;;;4978270;28;20033;-67
2023/07/24 03:17:13;;;;;;;2.13;1.48;;;18.40;99.90;;;;;;4979155;28;20026;-67
2023/07/24 03:19:38;;;;;;;2.95;1.73;;;18.40;99.90;;;;;;4978041;28;20033;-67
2023/07/24 03:22:04;;;;;;;2.83;1.40;;;18.30;99.90;;;;;;4978008;28;20038;-67
2023/07/24 03:24:29;;;;;;;6.57;2.72;;;18.30;99.90;;;;;;4978063;28;20027;-68
2023/07/24 03:26:55;;;;;;;2.88;1.52;;;18.20;99.90;;;;;;4977603;28;20030;-67
2023/07/24 03:29:20;;;;;;;3.72;1.88;;;18.20;99.90;;;;;;4978145;28;20038;-67
2023/07/24 03:31:46;;;;;;;3.10;1.80;;;18.30;99.90;;;;;;4977692;28;20101;-67
2023/07/24 03:34:11;;;;;;;3.28;1.50;;;18.20;99.90;;;;;;4976882;28;20031;-67
2023/07/24 03:36:41;;;;;;;2.42;1.73;;;18.20;99.90;;;;;;4977881;28;20038;-67
2023/07/24 03:39:06;;;;;;;2.47;1.67;;;18.20;99.90;;;;;;4977741;28;20033;-67
2023/07/24 03:41:32;;;;;;;6.22;1.70;;;18.30;99.90;;;;;;4977623;28;20058;-67
2023/07/24 03:43:58;;;;;;;4.43;1.65;;;18.20;99.90;;;;;;4977111;28;20031;-67
2023/07/24 03:46:23;;;;;;;2.80;1.45;;;18.20;99.90;;;;;;4976747;28;20100;-67
2023/07/24 03:48:50;;;;;;;2.72;1.50;;;18.20;99.90;;;;;;4977370;28;20019;-67
2023/07/24 03:51:16;;;;;;;2.95;1.60;;;18.20;99.90;;;;;;4977715;28;20019;-67
2023/07/24 03:53:41;;;;;;;2.53;1.63;;;18.20;99.90;;;;;;4978205;28;20034;-67
2023/07/24 03:56:07;;;;;;;3.80;1.83;;;18.00;99.90;;;;;;4977283;28;20121;-67
2023/07/24 03:58:32;;;;;;;2.50;1.50;;;18.00;99.90;;;;;;4978227;28;20027;-67
2023/07/24 04:00:58;;;;;;;3.88;1.80;;;17.90;99.90;;;;;;4977216;28;20031;-67
2023/07/24 04:03:23;;;;;;;3.33;1.50;;;18.00;99.90;;;;;;4977173;28;20037;-67
2023/07/24 04:05:49;;;;;;;2.92;1.70;;;17.90;99.90;;;;;;4976997;28;20049;-67
2023/07/24 04:08:14;;;;;;;4.22;1.90;;;18.00;99.90;;;;;;4977585;28;20034;-67
2023/07/24 04:10:40;;;;;;;4.13;1.70;;;18.00;99.90;;;;;;4977109;28;20026;-67
2023/07/24 04:13:06;;;;;;;4.30;1.80;;;18.10;99.90;;;;;;4977240;28;20049;-67
2023/07/24 04:15:31;;;;;;;3.20;1.55;;;18.10;99.90;;;;;;4977947;28;20027;-67
2023/07/24 04:17:57;;;;;;;2.97;1.67;;;18.10;99.90;;;;;;4977740;28;20027;-67
2023/07/24 04:20:22;;;;;;;4.85;1.70;;;18.20;99.90;;;;;;4977973;28;20027;-67
2023/07/24 04:22:48;;;;;;;3.15;2.03;;;18.10;99.90;;;;;;4977203;28;20033;-67
2023/07/24 04:25:13;;;;;;;5.68;2.30;;;18.10;99.90;;;;;;4976717;28;20034;-67
2023/07/24 04:27:39;;;;;;;2.35;1.67;;;17.90;99.90;;;;;;4976406;28;20035;-67
2023/07/24 04:30:05;;;;;;;4.43;1.45;;;17.90;99.90;;;;;;4976919;28;20122;-67
2023/07/24 04:32:30;;;;;;;2.80;1.50;;;17.80;99.90;;;;;;4977050;28;20023;-67
2023/07/24 04:34:56;;;;;;;3.67;1.85;;;17.80;99.90;;;;;;4977430;28;20025;-67
2023/07/24 04:37:21;;;;;;;3.30;1.63;;;17.90;99.90;;;;;;4976833;28;20023;-67
2023/07/24 04:39:47;;;;;;;2.80;1.80;;;18.00;99.90;;;;;;4976965;28;20019;-67
2023/07/24 04:42:12;;;;;;;2.35;1.60;;;18.00;99.90;;;;;;4976865;28;20074;-67
2023/07/24 04:44:38;;;;;;;3.05;1.83;;;18.10;99.90;;;;;;4978274;28;20117;-67
2023/07/24 04:47:04;;;;;;;3.10;1.80;;;18.20;99.90;;;;;;4981601;28;20053;-67
2023/07/24 04:49:30;;;;;;;6.63;2.15;;;18.30;99.90;;;;;;4979703;28;20026;-67
2023/07/24 04:51:56;;;;;;;7.00;2.08;;;18.30;99.90;;;;;;4980757;28;20114;-67
2023/07/24 04:54:22;;;;;;;6.43;1.75;;;18.30;99.90;;;;;;4980546;28;20073;-67
2023/07/24 04:56:47;;;;;;;3.47;2.00;;;18.40;99.90;;;;;;4981337;28;20085;-68
2023/07/24 04:59:13;;;;;;;6.07;2.45;;;18.40;99.90;;;;;;4980912;28;20332;-67
2023/07/24 05:01:38;;;;;;;5.50;1.80;;;18.40;99.90;;;;;;4980751;28;20022;-68
2023/07/24 05:04:04;;;;;;;4.05;1.92;;;18.40;99.90;;;;;;4980598;28;20034;-68
2023/07/24 05:06:29;;;;;;;7.47;1.92;;;18.40;99.90;;;;;;4980311;28;20023;-67
2023/07/24 05:08:55;;;;;;;4.65;1.88;;;18.40;99.90;;;;;;4980929;28;20034;-72
2023/07/24 05:11:20;;;;;;;5.30;1.77;;;18.50;99.90;;;;;;4981242;28;20097;-71
2023/07/24 05:13:46;;;;;;;6.25;1.83;;;18.50;99.90;;;;;;4981215;28;20027;-71
2023/07/24 05:16:11;;;;;;;5.72;2.00;;;18.70;99.90;;;;;;4980059;28;20054;-69
2023/07/24 05:18:37;;;;;;;5.20;1.92;;;18.90;99.90;;;;;;4981147;28;20105;-70
2023/07/24 05:21:02;;;;;;;4.75;3.28;;;19.00;99.90;;;;;;4980171;28;20092;-70
2023/07/24 05:23:28;;;;;;;6.43;3.70;;;19.10;99.90;;;;;;4981192;28;20033;-71
2023/07/24 05:25:58;;;;;;;6.15;3.55;;;19.20;99.90;;;;;;4981189;28;20090;-70
2023/07/24 05:28:25;;;;;;;8.55;3.85;;;19.20;99.90;;;;;;4980017;28;20113;-69
2023/07/24 05:30:51;;;;;;;5.72;4.15;;;19.20;99.90;;;;;;4980121;28;20053;-69
2023/07/24 05:33:17;;;;;;;6.43;4.40;;;19.10;99.90;;;;;;4980004;28;20031;-68
2023/07/24 05:35:43;;;;;;;5.72;4.57;;;19.10;99.90;;;;;;4980189;28;20069;-68
2023/07/24 05:38:08;;;;;;;8.18;3.78;;;19.20;99.90;;;;;;4981097;28;20026;-68
2023/07/24 05:40:34;;;;;;;5.82;3.70;;;19.40;99.90;;;;;;4980226;28;20038;-68
2023/07/24 05:43:00;;;;;;;3.40;2.58;;;19.50;99.90;;;;;;4979845;28;20027;-68
2023/07/24 05:45:27;;;;;;;5.22;2.38;;;19.50;99.90;;;;;;4979672;28;20023;-68
2023/07/24 05:47:52;;;;;;;3.38;2.25;;;19.50;99.90;;;;;;4979843;28;20023;-68
2023/07/24 05:50:18;;;;;;;3.70;1.83;;;19.40;99.90;;;;;;4980348;28;20069;-68
2023/07/24 05:52:43;;;;;;;4.80;2.55;;;19.50;99.90;;;;;;4980518;28;20031;-68
2023/07/24 05:55:09;;;;;;;5.22;2.10;;;19.60;99.90;;;;;;4980445;28;20098;-68
2023/07/24 05:57:35;;;;;;;11.65;2.08;;;19.50;99.90;;;;;;4979631;28;20019;-68
2023/07/24 06:00:00;;;;;;;4.88;2.30;;;19.60;99.90;;;;;;4980102;28;20086;-68
2023/07/24 06:02:27;;;;;;;4.13;2.25;;;19.50;99.90;;;;;;4981996;28;20061;-68
2023/07/24 06:04:52;;;;;;;4.35;2.10;;;19.70;99.90;;;;;;4982275;28;20058;-68
2023/07/24 06:07:18;;;;;;;6.75;2.10;;;19.80;99.90;;;;;;4979399;28;20031;-68
2023/07/24 06:09:43;;;;;;;6.35;2.50;;;20.00;99.90;;;;;;4979457;28;20094;-68
2023/07/24 06:12:09;;;;;;;8.30;2.45;;;20.20;99.90;;;;;;4979376;28;20030;-68
2023/07/24 06:14:34;;;;;;;4.68;2.00;;;20.40;99.90;;;;;;4980213;28;20027;-68
2023/07/24 06:17:00;;;;;;;5.75;2.25;;;20.50;99.90;;;;;;4979251;28;20069;-68
2023/07/24 06:20:08;;;;;;;3.13;1.98;;;20.70;99.90;;;;;;4979130;28;20027;-68
2023/07/24 06:22:33;;;;;;;4.32;2.30;;;20.90;99.90;;;;;;4979092;28;20101;-68
2023/07/24 06:24:59;;;;;;;5.07;2.22;;;21.00;99.90;;;;;;4979196;28;20019;-68
2023/07/24 06:27:24;;;;;;;3.55;2.08;;;21.00;99.90;;;;;;4980454;28;20058;-68
2023/07/24 06:29:50;;;;;;;6.07;2.08;;;21.10;99.90;;;;;;4980073;28;20034;-68
2023/07/24 06:32:15;;;;;;;8.38;2.58;;;21.20;99.90;;;;;;4979487;28;20046;-69
2023/07/24 06:34:41;;;;;;;7.30;2.25;;;21.30;99.90;;;;;;4979811;28;20154;-69
2023/07/24 06:37:07;;;;;;;3.70;2.10;;;21.40;99.90;;;;;;4979633;28;20027;-68
2023/07/24 06:39:33;;;;;;;6.90;2.35;;;21.50;99.90;;;;;;4979050;28;20097;-69
2023/07/24 06:41:58;;;;;;;4.80;2.83;;;21.60;99.90;;;;;;4978687;28;20030;-69
2023/07/24 06:44:24;;;;;;;6.97;2.67;;;21.60;99.90;;;;;;4979387;28;20045;-69
2023/07/24 06:46:49;;;;;;;4.35;2.35;;;21.70;99.90;;;;;;4978594;28;20042;-68
2023/07/24 06:49:15;;;;;;;5.20;2.50;;;21.80;99.90;;;;;;4978572;28;20025;-68
2023/07/24 06:51:41;;;;;;;5.68;2.42;;;21.90;99.90;;;;;;4979059;28;20019;-68
2023/07/24 06:54:06;;;;;;;5.15;2.30;;;22.00;99.90;;;;;;4978476;28;20038;-68
2023/07/24 06:56:32;;;;;;;5.93;2.85;;;22.00;99.90;;;;;;4978323;28;20035;-68
2023/07/24 06:58:58;;;;;;;4.28;2.05;;;22.00;99.90;;;;;;4978484;28;20057;-69
2023/07/24 07:01:23;;;;;;;3.83;2.28;;;22.00;99.90;;;;;;4978270;28;20030;-68
2023/07/24 07:03:49;;;;;;;5.13;2.45;;;22.10;99.90;;;;;;4978397;28;20030;-68
2023/07/24 07:06:15;;;;;;;5.10;2.70;;;22.10;99.90;;;;;;4978361;28;20088;-68
2023/07/24 07:08:40;;;;;;;6.90;2.75;;;22.30;99.90;;;;;;4978122;28;20034;-68
2023/07/24 07:11:06;;;;;;;5.55;2.85;;;22.30;99.90;;;;;;4978227;28;20033;-68
2023/07/24 07:13:31;;;;;;;4.63;2.63;;;22.40;99.90;;;;;;4978585;28;20118;-67
2023/07/24 07:15:57;;;;;;;4.72;3.15;;;22.40;99.90;;;;;;4978435;28;20098;-68
2023/07/24 07:18:22;;;;;;;3.78;2.63;;;22.40;99.90;;;;;;4979060;28;20030;-68
2023/07/24 07:20:49;;;;;;;3.53;2.78;;;22.40;99.90;;;;;;4978346;28;20027;-67
2023/07/24 07:23:15;;;;;;;4.13;2.47;;;22.30;99.90;;;;;;4977951;28;20027;-66
2023/07/24 07:25:43;;;;;;;6.57;3.00;;;22.30;99.90;;;;;;4977987;28;20023;-67
2023/07/24 07:28:09;;;;;;;4.28;2.75;;;22.30;99.90;;;;;;4977864;28;20034;-67
2023/07/24 07:30:34;;;;;;;6.93;2.80;;;22.30;99.90;;;;;;4978928;28;20031;-67
2023/07/24 07:33:00;;;;;;;8.75;2.70;;;22.40;99.90;;;;;;4977905;28;20031;-67
2023/07/24 07:35:25;;;;;;;4.35;2.90;;;22.30;99.90;;;;;;4977742;28;20173;-67
2023/07/24 07:37:51;;;;;;;3.92;2.53;;;22.40;99.90;;;;;;4977756;28;20034;-67
2023/07/24 07:40:17;;;;;;;4.65;3.20;;;22.30;99.90;;;;;;4977614;28;20030;-67
2023/07/24 07:42:42;;;;;;;4.85;2.67;;;22.30;99.90;;;;;;4978502;28;20061;-67
2023/07/24 07:45:08;;;;;;;6.05;2.88;;;22.40;99.90;;;;;;4977578;28;20027;-67
2023/07/24 07:47:34;;;;;;;8.23;3.08;;;22.40;99.90;;;;;;4977582;28;20030;-67
2023/07/24 07:49:59;;;;;;;4.57;3.15;;;22.40;99.90;;;;;;4978529;28;20046;-67
2023/07/24 07:52:25;;;;;;;3.67;2.75;;;22.30;99.90;;;;;;4977564;28;20022;-67
2023/07/24 07:54:50;;;;;;;7.28;2.78;;;22.30;99.90;;;;;;4977373;28;20074;-67
2023/07/24 07:57:16;;;;;;;5.82;2.72;;;22.30;99.90;;;;;;4977575;28;20232;-67
2023/07/24 07:59:42;;;;;;;5.45;2.92;;;22.40;99.90;;;;;;4978285;28;20033;-68
2023/07/24 08:02:08;;;;;;;5.07;3.00;;;22.40;99.90;;;;;;4978636;28;20027;-66
2023/07/24 08:04:33;;;;;;;5.22;2.47;;;22.40;99.90;;;;;;4977204;28;20033;-66
2023/07/24 08:06:59;;;;;;;3.35;2.53;;;22.40;99.90;;;;;;4977243;28;20114;-67
2023/07/24 08:09:25;;;;;;;4.63;2.90;;;22.40;99.90;;;;;;4977122;28;20081;-67
2023/07/24 08:11:51;;;;;;;6.85;2.97;;;22.40;99.90;;;;;;4977260;28;20023;-68
2023/07/24 08:14:17;;;;;;;5.80;2.80;;;22.40;99.90;;;;;;4978304;28;20019;-68
2023/07/24 08:16:43;;;;;;;5.82;2.97;;;22.40;99.90;;;;;;4977143;28;20026;-68
2023/07/24 08:19:08;;;;;;;5.05;3.10;;;22.40;99.90;;;;;;4976699;28;20023;-68
2023/07/24 08:21:47;;;;;;;4.18;2.58;;;22.50;99.90;;;;;;4977566;28;20023;-68
2023/07/24 08:24:12;;;;;;;7.57;2.67;;;22.60;99.90;;;;;;4977068;28;20030;-68
2023/07/24 08:26:38;;;;;;;5.57;3.03;;;22.70;99.90;;;;;;4977353;28;20035;-68
2023/07/24 08:29:05;;;;;;;3.90;2.80;;;22.80;99.90;;;;;;4978275;28;20054;-68
2023/07/24 08:31:30;;;;;;;5.88;3.13;;;22.90;99.90;;;;;;4977047;28;20110;-68
2023/07/24 08:33:56;;;;;;;6.70;3.20;;;23.00;99.90;;;;;;4977994;28;20054;-68
2023/07/24 08:36:47;;;;;;;3.85;2.65;;;23.10;99.90;;;;;;4977134;28;20033;-68
2023/07/24 08:39:12;;;;;;;7.33;2.80;;;23.30;99.90;;;;;;4978131;28;20046;-68
2023/07/24 08:41:38;;;;;;;6.45;2.78;;;23.40;99.90;;;;;;4978078;28;20030;-68
2023/07/24 08:44:08;;;;;;;5.55;2.72;;;23.50;99.90;;;;;;4977769;28;20039;-68
2023/07/24 08:46:40;;;;;;;4.18;2.65;;;23.60;99.90;;;;;;4977893;28;20025;-67
2023/07/24 08:49:06;;;;;;;5.32;2.85;;;23.70;99.90;;;;;;4977361;28;20061;-67
2023/07/24 08:51:32;;;;;;;5.72;3.35;;;23.70;99.90;;;;;;4977040;28;20043;-67
2023/07/24 08:54:00;;;;;;;5.53;3.25;;;23.70;99.90;;;;;;4977674;28;20027;-67
2023/07/24 08:56:26;;;;;;;5.50;3.40;;;23.70;99.90;;;;;;4976950;28;20034;-67
2023/07/24 08:58:51;;;;;;;6.22;3.47;;;23.70;99.90;;;;;;4976677;28;20027;-67
2023/07/24 09:01:17;;;;;;;6.05;3.28;;;23.70;99.90;;;;;;4977758;28;20031;-68
2023/07/24 09:03:42;;;;;;;6.05;2.63;;;23.70;99.90;;;;;;4978045;28;20027;-68
2023/07/24 09:06:08;;;;;;;6.10;3.20;;;23.60;99.90;;;;;;4977507;28;20015;-68
2023/07/24 09:08:41;;;;;;;7.45;3.58;;;23.50;99.90;;;;;;4977952;28;20030;-68
2023/07/24 09:11:08;;;;;;;6.07;3.22;;;23.40;99.90;;;;;;4978173;28;20105;-68
2023/07/24 09:13:38;;;;;;;7.30;3.28;;;23.60;99.90;;;;;;4977287;28;20026;-67
2023/07/24 09:16:04;;;;;;;8.85;4.65;;;23.60;99.90;;;;;;4976771;28;20030;-67
2023/07/24 09:18:43;;;;;;;8.02;3.17;;;23.70;99.90;;;;;;4976843;28;20118;-67
2023/07/24 09:21:11;;;;;;;8.65;3.80;;;23.80;99.90;;;;;;4976776;28;20035;-67
2023/07/24 09:23:40;;;;;;;6.80;4.05;;;23.90;99.90;;;;;;4977634;28;20047;-68
2023/07/24 09:26:07;;;;;;;9.73;3.45;;;23.90;99.90;;;;;;4976442;28;20113;-69
2023/07/24 09:28:33;;;;;;;5.97;3.58;;;23.90;99.90;;;;;;4976518;28;20022;-68
2023/07/24 09:31:03;;;;;;;7.78;3.83;;;24.00;99.90;;;;;;4976918;28;20027;-68
2023/07/24 09:33:39;;;;;;;10.50;3.72;;;24.00;99.90;;;;;;4979925;28;20086;-68
2023/07/24 09:36:09;;;;;;;5.32;3.55;;;24.20;99.90;;;;;;4979800;28;20035;-68
2023/07/24 09:38:35;;;;;;;12.07;3.75;;;24.20;99.90;;;;;;4980714;28;20033;-68
2023/07/24 09:41:05;;;;;;;5.35;3.60;;;24.20;99.90;;;;;;4980235;28;20027;-68
2023/07/24 09:43:31;;;;;;;9.73;4.18;;;24.30;99.90;;;;;;4981099;28;20038;-68
2023/07/24 09:45:57;;;;;;;7.22;3.92;;;24.50;99.90;;;;;;4979762;28;20034;-68
2023/07/24 09:48:26;;;;;;;5.22;3.03;;;24.80;99.90;;;;;;4980983;28;20027;-68
2023/07/24 09:50:56;;;;;;;7.43;3.28;;;24.80;99.90;;;;;;4980023;28;20055;-68
2023/07/24 09:53:34;;;;;;;5.57;3.37;;;24.70;99.90;;;;;;4979991;28;20023;-68
2023/07/24 09:56:04;;;;;;;5.20;3.50;;;24.70;99.90;;;;;;4980666;28;20266;-68
2023/07/24 09:58:36;;;;;;;7.82;4.28;;;24.70;99.90;;;;;;4979569;28;20033;-68
2023/07/24 10:01:07;;;;;;;4.70;2.80;;;24.70;99.90;;;;;;4980091;28;20023;-68
2023/07/24 10:03:35;;;;;;;6.20;3.78;;;24.70;99.90;;;;;;4980296;28;20106;-68
2023/07/24 10:06:01;;;;;;;6.88;3.55;;;24.80;99.90;;;;;;4979949;28;20050;-68
2023/07/24 10:08:27;;;;;;;6.80;2.95;;;24.90;99.90;;;;;;4980268;28;20026;-68
2023/07/24 10:10:53;;;;;;;6.70;3.75;;;25.00;99.90;;;;;;4980381;28;20105;-68
2023/07/24 10:13:20;;;;;;;7.72;4.20;;;25.10;99.90;;;;;;4980483;28;20031;-68
2023/07/24 10:15:47;;;;;;;5.82;3.28;;;25.20;99.90;;;;;;4979330;28;20027;-68
2023/07/24 10:18:15;;;;;;;6.68;3.60;;;25.30;99.90;;;;;;4979198;28;20031;-68
2023/07/24 10:20:41;;;;;;;7.00;4.22;;;25.30;99.90;;;;;;4979546;28;20030;-68
2023/07/24 10:23:09;;;;;;;8.40;4.20;;;25.40;99.90;;;;;;4979139;28;20027;-68
2023/07/24 10:25:37;;;;;;;7.03;3.33;;;25.40;99.90;;;;;;4979885;28;20033;-68
2023/07/24 10:28:12;;;;;;;5.35;3.35;;;25.50;99.90;;;;;;4979145;28;20034;-68
2023/07/24 10:30:39;;;;;;;4.65;3.13;;;25.60;99.90;;;;;;4979907;28;20027;-68
2023/07/24 10:33:09;;;;;;;4.88;3.13;;;25.80;99.90;;;;;;4979167;28;20061;-68
2023/07/24 10:35:43;;;;;;;5.18;3.17;;;26.00;99.90;;;;;;4979816;28;20035;-68
2023/07/24 10:38:09;;;;;;;5.55;3.45;;;26.10;99.90;;;;;;4979593;28;20030;-69
2023/07/24 10:40:35;;;;;;;5.63;3.53;;;26.40;99.90;;;;;;4978829;28;20031;-68
2023/07/24 10:43:05;;;;;;;5.53;3.50;;;26.80;99.90;;;;;;4979717;28;20027;-68
2023/07/24 10:45:47;;;;;;;5.65;3.75;;;27.10;99.90;;;;;;4979046;28;20023;-68
2023/07/24 10:48:13;;;;;;;4.95;3.20;;;27.50;99.90;;;;;;4978763;28;20030;-68
2023/07/24 10:50:44;;;;;;;5.18;3.17;;;27.50;99.90;;;;;;4978490;28;20097;-68
2023/07/24 10:53:10;;;;;;;;;;;27.50;99.90;;;;;;4979924;28;20026;-68
2023/07/24 10:55:36;;;;;;;4.50;3.25;;;27.00;99.90;;;;;;4979427;28;19906;-68
2023/07/24 10:58:02;;;;;;;6.07;4.00;;;27.10;99.90;;;;;;4979543;28;20035;-68
2023/07/24 11:00:28;;;;;;;6.00;3.53;;;27.30;99.90;;;;;;4978542;28;20035;-70
2023/07/24 11:02:54;;;;;;;8.07;3.90;;;27.40;99.90;;;;;;4978437;28;20027;-70
2023/07/24 11:05:21;;;;;;;6.13;3.65;;;27.40;99.90;;;;;;4978442;28;20054;-70
2023/07/24 11:07:47;;;;;;;6.53;3.80;;;27.10;99.90;;;;;;4978424;28;20027;-70
2023/07/24 11:10:17;;;;;;;5.50;3.33;;;26.80;99.90;;;;;;5016205;23;20104;-68
2023/07/24 11:12:43;;;;;;;5.90;3.70;;;26.50;99.90;;;;;;4997715;28;20023;-68
2023/07/24 11:15:09;;;;;;;6.32;3.92;;;26.30;99.90;;;;;;4998289;28;20025;-69
2023/07/24 11:17:37;;;;;;;6.43;3.83;;;26.30;99.90;;;;;;4998403;28;20030;-69
2023/07/24 11:20:13;;;;;;;6.55;3.58;;;26.20;99.90;;;;;;4997535;28;20109;-69
2023/07/24 11:22:40;;;;;;;8.73;4.13;;;26.00;99.90;;;;;;4997453;28;20049;-69
2023/07/24 11:25:07;;;;;;;7.53;3.83;;;25.90;99.90;;;;;;4997415;28;20053;-70
2023/07/24 11:27:37;;;;;;;6.18;3.35;;;25.90;99.90;;;;;;4997469;28;20088;-70
2023/07/24 11:30:03;;;;;;;6.43;3.38;;;25.90;99.90;;;;;;4997600;28;20109;-69
2023/07/24 11:32:28;;;;;;;8.43;3.67;;;25.70;99.90;;;;;;4998273;28;20074;-69
2023/07/24 11:34:54;;;;;;;5.82;3.40;;;25.60;99.90;;;;;;4997166;28;20037;-69
2023/07/24 11:37:20;;;;;;;5.15;3.50;;;25.50;99.90;;;;;;4997323;28;20023;-70
2023/07/24 11:40:15;;;;;;;6.05;3.15;;;25.50;99.90;;;;;;4997282;28;20037;-69
2023/07/24 11:42:43;;;;;;;5.65;3.33;;;25.50;99.90;;;;;;4941925;29;20078;-70
2023/07/24 11:45:09;;;;;;;4.82;3.17;;;25.40;99.90;;;;;;4957644;29;20098;-70
2023/07/24 11:47:46;;;;;;;7.07;3.45;;;25.30;99.90;;;;;;4942454;29;20035;-70
2023/07/24 11:50:12;;;;;;;4.57;2.72;;;25.40;99.90;;;;;;4941401;29;20025;-69
2023/07/24 11:52:40;;;;;;;6.43;3.50;;;25.70;99.90;;;;;;4941586;29;20027;-69
2023/07/24 11:55:06;;;;;;;6.97;3.45;;;26.00;99.90;;;;;;4956847;28;20051;-69
2023/07/24 11:57:31;;;;;;;4.88;3.13;;;26.00;99.90;;;;;;4941390;29;20066;-69
2023/07/24 11:59:58;;;;;;;6.60;3.15;;;25.90;99.90;;;;;;4957887;28;20039;-69
2023/07/24 12:02:26;;;;;;;6.20;3.10;;;26.00;99.90;;;;;;4941388;29;20062;-69
2023/07/24 12:04:58;;;;;;;6.95;3.03;;;26.70;99.90;;;;;;4941162;29;20046;-69
2023/07/24 12:07:34;;;;;;;4.55;3.13;;;27.20;99.90;;;;;;4941342;29;20030;-69
2023/07/24 12:10:01;;;;;;;6.75;3.35;;;27.80;99.90;;;;;;4957507;28;20035;-69
2023/07/24 12:12:46;;;;;;;7.75;3.58;;;28.20;99.90;;;;;;4941282;29;20098;-69
2023/07/24 12:15:13;;;;;;;8.55;3.40;;;29.00;99.90;;;;;;4941144;29;20023;-69
2023/07/24 12:17:39;;;;;;;6.47;3.63;;;29.40;99.90;;;;;;4957543;29;20028;-69
2023/07/24 12:20:08;;;;;;;5.63;4.00;;;29.60;99.90;;;;;;4992695;28;20026;-69
2023/07/24 12:22:34;;;;;;;5.28;3.20;;;29.40;99.90;;;;;;4997956;28;20105;-69
2023/07/24 12:25:00;;;;;;;6.30;2.88;;;29.00;99.90;;;;;;4997709;28;20082;-69
2023/07/24 12:27:26;;;;;;;4.55;3.67;;;29.10;99.90;;;;;;4997537;28;20061;-69
2023/07/24 12:29:52;;;;;;;3.95;3.35;;;29.50;99.90;;;;;;4997297;28;20042;-69
2023/07/24 12:32:17;;;;;;;4.13;2.78;;;30.40;99.90;;;;;;4996467;28;20035;-69
2023/07/24 12:34:45;;;;;;;4.88;2.97;;;30.50;99.90;;;;;;4996487;28;20018;-69
2023/07/24 12:37:10;;;;;;;5.70;3.15;;;30.00;99.90;;;;;;4997562;28;20030;-69
2023/07/24 12:39:36;;;;;;;11.00;4.07;;;29.80;99.90;;;;;;4996385;28;20029;-69
2023/07/24 12:42:01;;;;;;;7.47;3.17;;;30.20;99.90;;;;;;4996713;28;20018;-69
2023/07/24 12:44:27;;;;;;;5.40;3.00;;;30.40;99.40;;;;;;4997511;28;20033;-69
2023/07/24 12:46:55;;;;;;;4.75;2.78;;;30.70;98.40;;;;;;4996416;28;20034;-69